sensor_id;sensor_type;location;lat;lon;timestamp;P1;durP1;ratioP1;P2;durP2;ratioP2
71265;SDS011;59030;52.052;8.550;2022-09-03T00:02:30;1.20;;;1.10;;
71265;SDS011;59030;52.052;8.550;2022-09-03T00:04:57;1.93;;;1.10;;
71265;SDS011;59030;52.052;8.550;2022-09-03T00:07:27;1.40;;;1.30;;
71265;SDS011;59030;52.052;8.550;2022-09-03T00:09:55;2.00;;;1.40;;
71265;SDS011;59030;52.052;8.550;2022-09-03T00:12:25;1.40;;;1.30;;
71265;SDS011;59030;52.052;8.550;2022-09-03T00:14:54;1.63;;;1.10;;
71265;SDS011;59030;52.052;8.550;2022-09-03T00:17:23;2.67;;;1.40;;
71265;SDS011;59030;52.052;8.550;2022-09-03T00:19:52;2.37;;;1.20;;
71265;SDS011;59030;52.052;8.550;2022-09-03T00:22:20;1.37;;;1.27;;
71265;SDS011;59030;52.052;8.550;2022-09-03T00:24:49;1.37;;;1.27;;
71265;SDS011;59030;52.052;8.550;2022-09-03T00:27:19;4.00;;;1.50;;
71265;SDS011;59030;52.052;8.550;2022-09-03T00:29:48;2.17;;;1.10;;
71265;SDS011;59030;52.052;8.550;2022-09-03T00:32:17;3.63;;;1.10;;
71265;SDS011;59030;52.052;8.550;2022-09-03T00:34:45;2.37;;;1.30;;
71265;SDS011;59030;52.052;8.550;2022-09-03T00:37:14;1.47;;;1.17;;
71265;SDS011;59030;52.052;8.550;2022-09-03T00:39:42;2.27;;;1.30;;
71265;SDS011;59030;52.052;8.550;2022-09-03T00:42:13;1.30;;;1.20;;
71265;SDS011;59030;52.052;8.550;2022-09-03T00:44:44;2.70;;;1.10;;
71265;SDS011;59030;52.052;8.550;2022-09-03T00:47:15;1.43;;;1.33;;
71265;SDS011;59030;52.052;8.550;2022-09-03T00:49:46;3.07;;;1.37;;
71265;SDS011;59030;52.052;8.550;2022-09-03T00:52:15;1.53;;;1.40;;
71265;SDS011;59030;52.052;8.550;2022-09-03T00:54:45;1.70;;;1.50;;
71265;SDS011;59030;52.052;8.550;2022-09-03T00:57:26;1.40;;;1.30;;
71265;SDS011;59030;52.052;8.550;2022-09-03T00:59:56;2.30;;;1.60;;
71265;SDS011;59030;52.052;8.550;2022-09-03T01:02:27;2.10;;;1.80;;
71265;SDS011;59030;52.052;8.550;2022-09-03T01:04:57;2.37;;;1.80;;
71265;SDS011;59030;52.052;8.550;2022-09-03T01:07:30;3.43;;;2.10;;
71265;SDS011;59030;52.052;8.550;2022-09-03T01:10:00;2.07;;;1.70;;
71265;SDS011;59030;52.052;8.550;2022-09-03T01:12:30;2.93;;;1.80;;
71265;SDS011;59030;52.052;8.550;2022-09-03T01:15:00;2.80;;;1.47;;
71265;SDS011;59030;52.052;8.550;2022-09-03T01:17:31;1.37;;;1.27;;
71265;SDS011;59030;52.052;8.550;2022-09-03T01:20:11;4.00;;;1.30;;
71265;SDS011;59030;52.052;8.550;2022-09-03T01:25:29;1.23;;;1.13;;
71265;SDS011;59030;52.052;8.550;2022-09-03T01:28:02;1.30;;;1.20;;
71265;SDS011;59030;52.052;8.550;2022-09-03T01:30:32;1.30;;;1.13;;
71265;SDS011;59030;52.052;8.550;2022-09-03T01:33:01;1.50;;;1.10;;
71265;SDS011;59030;52.052;8.550;2022-09-03T01:35:31;1.33;;;1.23;;
71265;SDS011;59030;52.052;8.550;2022-09-03T01:38:07;2.57;;;1.30;;
71265;SDS011;59030;52.052;8.550;2022-09-03T01:40:36;1.47;;;1.10;;
71265;SDS011;59030;52.052;8.550;2022-09-03T01:43:09;1.57;;;1.27;;
71265;SDS011;59030;52.052;8.550;2022-09-03T01:45:46;1.20;;;1.10;;
71265;SDS011;59030;52.052;8.550;2022-09-03T01:48:20;2.27;;;1.40;;
71265;SDS011;59030;52.052;8.550;2022-09-03T01:50:49;1.10;;;1.00;;
71265;SDS011;59030;52.052;8.550;2022-09-03T01:53:22;2.20;;;1.20;;
71265;SDS011;59030;52.052;8.550;2022-09-03T01:55:53;1.30;;;1.20;;
71265;SDS011;59030;52.052;8.550;2022-09-03T01:58:24;1.37;;;1.27;;
71265;SDS011;59030;52.052;8.550;2022-09-03T02:00:53;1.30;;;1.20;;
71265;SDS011;59030;52.052;8.550;2022-09-03T02:03:21;1.43;;;1.33;;
71265;SDS011;59030;52.052;8.550;2022-09-03T02:05:49;3.23;;;1.10;;
71265;SDS011;59030;52.052;8.550;2022-09-03T02:08:18;3.43;;;1.30;;
71265;SDS011;59030;52.052;8.550;2022-09-03T02:10:46;2.00;;;1.30;;
71265;SDS011;59030;52.052;8.550;2022-09-03T02:13:16;2.13;;;1.20;;
71265;SDS011;59030;52.052;8.550;2022-09-03T02:15:44;1.40;;;1.10;;
71265;SDS011;59030;52.052;8.550;2022-09-03T02:18:14;1.30;;;1.20;;
71265;SDS011;59030;52.052;8.550;2022-09-03T02:20:41;1.27;;;1.13;;
71265;SDS011;59030;52.052;8.550;2022-09-03T02:23:09;1.23;;;1.10;;
71265;SDS011;59030;52.052;8.550;2022-09-03T02:25:37;1.40;;;1.30;;
71265;SDS011;59030;52.052;8.550;2022-09-03T02:28:05;1.63;;;1.27;;
71265;SDS011;59030;52.052;8.550;2022-09-03T02:30:33;1.90;;;1.10;;
71265;SDS011;59030;52.052;8.550;2022-09-03T02:33:00;2.07;;;1.30;;
71265;SDS011;59030;52.052;8.550;2022-09-03T02:35:28;1.53;;;1.10;;
71265;SDS011;59030;52.052;8.550;2022-09-03T02:37:55;3.07;;;1.30;;
71265;SDS011;59030;52.052;8.550;2022-09-03T02:40:22;1.30;;;1.20;;
71265;SDS011;59030;52.052;8.550;2022-09-03T02:42:50;3.43;;;1.20;;
71265;SDS011;59030;52.052;8.550;2022-09-03T02:45:20;1.40;;;1.30;;
71265;SDS011;59030;52.052;8.550;2022-09-03T02:47:49;1.27;;;1.10;;
71265;SDS011;59030;52.052;8.550;2022-09-03T02:50:18;1.20;;;1.00;;
71265;SDS011;59030;52.052;8.550;2022-09-03T02:52:45;2.93;;;1.07;;
71265;SDS011;59030;52.052;8.550;2022-09-03T02:55:12;2.43;;;1.30;;
71265;SDS011;59030;52.052;8.550;2022-09-03T02:57:40;1.20;;;1.10;;
71265;SDS011;59030;52.052;8.550;2022-09-03T03:00:09;1.73;;;1.17;;
71265;SDS011;59030;52.052;8.550;2022-09-03T03:02:36;4.23;;;1.33;;
71265;SDS011;59030;52.052;8.550;2022-09-03T03:05:04;1.40;;;1.30;;
71265;SDS011;59030;52.052;8.550;2022-09-03T03:07:34;1.30;;;1.20;;
71265;SDS011;59030;52.052;8.550;2022-09-03T03:10:02;3.30;;;1.67;;
71265;SDS011;59030;52.052;8.550;2022-09-03T03:12:29;1.30;;;1.20;;
71265;SDS011;59030;52.052;8.550;2022-09-03T03:14:56;1.50;;;1.40;;
71265;SDS011;59030;52.052;8.550;2022-09-03T03:17:24;3.57;;;1.40;;
71265;SDS011;59030;52.052;8.550;2022-09-03T03:19:51;3.13;;;1.37;;
71265;SDS011;59030;52.052;8.550;2022-09-03T03:22:19;1.60;;;1.50;;
71265;SDS011;59030;52.052;8.550;2022-09-03T03:24:46;1.43;;;1.33;;
71265;SDS011;59030;52.052;8.550;2022-09-03T03:27:15;2.20;;;1.30;;
71265;SDS011;59030;52.052;8.550;2022-09-03T03:29:44;1.70;;;1.30;;
71265;SDS011;59030;52.052;8.550;2022-09-03T03:32:11;1.30;;;1.20;;
71265;SDS011;59030;52.052;8.550;2022-09-03T03:34:38;5.23;;;1.30;;
71265;SDS011;59030;52.052;8.550;2022-09-03T03:37:06;1.10;;;1.10;;
71265;SDS011;59030;52.052;8.550;2022-09-03T03:39:33;3.73;;;1.30;;
71265;SDS011;59030;52.052;8.550;2022-09-03T03:42:00;5.57;;;1.43;;
71265;SDS011;59030;52.052;8.550;2022-09-03T03:44:27;1.57;;;1.20;;
71265;SDS011;59030;52.052;8.550;2022-09-03T03:46:55;2.07;;;1.40;;
71265;SDS011;59030;52.052;8.550;2022-09-03T03:49:22;1.40;;;1.30;;
71265;SDS011;59030;52.052;8.550;2022-09-03T03:51:52;1.30;;;1.20;;
71265;SDS011;59030;52.052;8.550;2022-09-03T03:54:19;3.10;;;1.47;;
71265;SDS011;59030;52.052;8.550;2022-09-03T03:56:47;1.80;;;1.40;;
71265;SDS011;59030;52.052;8.550;2022-09-03T03:59:14;1.53;;;1.43;;
71265;SDS011;59030;52.052;8.550;2022-09-03T04:01:42;1.77;;;1.47;;
71265;SDS011;59030;52.052;8.550;2022-09-03T04:04:10;1.40;;;1.30;;
71265;SDS011;59030;52.052;8.550;2022-09-03T04:06:38;2.10;;;1.40;;
71265;SDS011;59030;52.052;8.550;2022-09-03T04:09:06;1.30;;;1.20;;
71265;SDS011;59030;52.052;8.550;2022-09-03T04:11:33;1.37;;;1.30;;
71265;SDS011;59030;52.052;8.550;2022-09-03T04:14:01;1.30;;;1.20;;
71265;SDS011;59030;52.052;8.550;2022-09-03T04:16:28;2.80;;;1.40;;
71265;SDS011;59030;52.052;8.550;2022-09-03T04:18:58;1.17;;;1.17;;
71265;SDS011;59030;52.052;8.550;2022-09-03T04:21:27;1.93;;;1.40;;
71265;SDS011;59030;52.052;8.550;2022-09-03T04:23:55;1.27;;;1.20;;
71265;SDS011;59030;52.052;8.550;2022-09-03T04:26:23;2.47;;;1.60;;
71265;SDS011;59030;52.052;8.550;2022-09-03T04:28:51;1.70;;;1.60;;
71265;SDS011;59030;52.052;8.550;2022-09-03T04:31:19;1.73;;;1.57;;
71265;SDS011;59030;52.052;8.550;2022-09-03T04:33:47;1.50;;;1.40;;
71265;SDS011;59030;52.052;8.550;2022-09-03T04:36:15;1.50;;;1.40;;
71265;SDS011;59030;52.052;8.550;2022-09-03T04:38:43;1.50;;;1.40;;
71265;SDS011;59030;52.052;8.550;2022-09-03T04:41:12;2.53;;;1.50;;
71265;SDS011;59030;52.052;8.550;2022-09-03T04:43:40;1.40;;;1.33;;
71265;SDS011;59030;52.052;8.550;2022-09-03T04:46:09;1.37;;;1.27;;
71265;SDS011;59030;52.052;8.550;2022-09-03T04:48:36;1.50;;;1.40;;
71265;SDS011;59030;52.052;8.550;2022-09-03T04:51:05;1.50;;;1.40;;
71265;SDS011;59030;52.052;8.550;2022-09-03T04:53:33;2.33;;;1.47;;
71265;SDS011;59030;52.052;8.550;2022-09-03T04:56:01;3.13;;;1.40;;
71265;SDS011;59030;52.052;8.550;2022-09-03T04:58:28;1.90;;;1.47;;
71265;SDS011;59030;52.052;8.550;2022-09-03T05:00:56;1.60;;;1.50;;
71265;SDS011;59030;52.052;8.550;2022-09-03T05:03:23;2.67;;;1.50;;
71265;SDS011;59030;52.052;8.550;2022-09-03T05:05:51;1.63;;;1.53;;
71265;SDS011;59030;52.052;8.550;2022-09-03T05:08:19;2.80;;;1.60;;
71265;SDS011;59030;52.052;8.550;2022-09-03T05:10:47;3.50;;;1.60;;
71265;SDS011;59030;52.052;8.550;2022-09-03T05:13:14;1.53;;;1.43;;
71265;SDS011;59030;52.052;8.550;2022-09-03T05:15:41;1.63;;;1.50;;
71265;SDS011;59030;52.052;8.550;2022-09-03T05:18:10;3.83;;;1.70;;
71265;SDS011;59030;52.052;8.550;2022-09-03T05:20:38;2.30;;;1.60;;
71265;SDS011;59030;52.052;8.550;2022-09-03T05:23:05;2.00;;;1.80;;
71265;SDS011;59030;52.052;8.550;2022-09-03T05:25:33;2.27;;;1.60;;
71265;SDS011;59030;52.052;8.550;2022-09-03T05:28:02;2.47;;;1.70;;
71265;SDS011;59030;52.052;8.550;2022-09-03T05:30:30;1.80;;;1.70;;
71265;SDS011;59030;52.052;8.550;2022-09-03T05:32:57;2.13;;;1.93;;
71265;SDS011;59030;52.052;8.550;2022-09-03T05:35:24;2.63;;;1.80;;
71265;SDS011;59030;52.052;8.550;2022-09-03T05:37:54;1.90;;;1.80;;
71265;SDS011;59030;52.052;8.550;2022-09-03T05:40:21;1.50;;;1.40;;
71265;SDS011;59030;52.052;8.550;2022-09-03T05:42:53;2.43;;;1.70;;
71265;SDS011;59030;52.052;8.550;2022-09-03T05:45:22;1.47;;;1.37;;
71265;SDS011;59030;52.052;8.550;2022-09-03T05:47:50;3.03;;;1.50;;
71265;SDS011;59030;52.052;8.550;2022-09-03T05:50:17;3.03;;;1.70;;
71265;SDS011;59030;52.052;8.550;2022-09-03T05:52:44;2.80;;;1.53;;
71265;SDS011;59030;52.052;8.550;2022-09-03T05:55:12;1.63;;;1.53;;
71265;SDS011;59030;52.052;8.550;2022-09-03T05:57:39;1.97;;;1.60;;
71265;SDS011;59030;52.052;8.550;2022-09-03T06:00:10;2.73;;;1.70;;
71265;SDS011;59030;52.052;8.550;2022-09-03T06:02:37;1.70;;;1.60;;
71265;SDS011;59030;52.052;8.550;2022-09-03T06:05:05;1.83;;;1.40;;
71265;SDS011;59030;52.052;8.550;2022-09-03T06:07:33;1.50;;;1.40;;
71265;SDS011;59030;52.052;8.550;2022-09-03T06:10:00;2.90;;;1.43;;
71265;SDS011;59030;52.052;8.550;2022-09-03T06:12:29;1.80;;;1.70;;
71265;SDS011;59030;52.052;8.550;2022-09-03T06:14:56;1.70;;;1.60;;
71265;SDS011;59030;52.052;8.550;2022-09-03T06:17:23;1.70;;;1.60;;
71265;SDS011;59030;52.052;8.550;2022-09-03T06:19:51;1.63;;;1.53;;
71265;SDS011;59030;52.052;8.550;2022-09-03T06:22:18;3.20;;;1.67;;
71265;SDS011;59030;52.052;8.550;2022-09-03T06:24:46;2.57;;;1.70;;
71265;SDS011;59030;52.052;8.550;2022-09-03T06:27:13;1.70;;;1.60;;
71265;SDS011;59030;52.052;8.550;2022-09-03T06:29:40;2.03;;;1.67;;
71265;SDS011;59030;52.052;8.550;2022-09-03T06:32:08;1.70;;;1.60;;
71265;SDS011;59030;52.052;8.550;2022-09-03T06:34:35;1.60;;;1.50;;
71265;SDS011;59030;52.052;8.550;2022-09-03T06:37:02;1.80;;;1.70;;
71265;SDS011;59030;52.052;8.550;2022-09-03T06:39:30;2.20;;;1.60;;
71265;SDS011;59030;52.052;8.550;2022-09-03T06:41:57;1.60;;;1.50;;
71265;SDS011;59030;52.052;8.550;2022-09-03T06:44:24;1.87;;;1.77;;
71265;SDS011;59030;52.052;8.550;2022-09-03T06:46:52;1.57;;;1.47;;
71265;SDS011;59030;52.052;8.550;2022-09-03T06:49:19;4.23;;;1.70;;
71265;SDS011;59030;52.052;8.550;2022-09-03T06:51:47;1.70;;;1.60;;
71265;SDS011;59030;52.052;8.550;2022-09-03T06:54:15;2.37;;;1.70;;
71265;SDS011;59030;52.052;8.550;2022-09-03T06:56:42;1.70;;;1.60;;
71265;SDS011;59030;52.052;8.550;2022-09-03T06:59:10;1.70;;;1.60;;
71265;SDS011;59030;52.052;8.550;2022-09-03T07:01:38;2.23;;;1.70;;
71265;SDS011;59030;52.052;8.550;2022-09-03T07:04:07;1.60;;;1.50;;
71265;SDS011;59030;52.052;8.550;2022-09-03T07:06:36;1.93;;;1.80;;
71265;SDS011;59030;52.052;8.550;2022-09-03T07:09:05;2.53;;;1.90;;
71265;SDS011;59030;52.052;8.550;2022-09-03T07:11:34;1.70;;;1.60;;
71265;SDS011;59030;52.052;8.550;2022-09-03T07:14:02;1.93;;;1.83;;
71265;SDS011;59030;52.052;8.550;2022-09-03T07:19:06;2.00;;;1.70;;
71265;SDS011;59030;52.052;8.550;2022-09-03T07:21:35;3.27;;;1.93;;
71265;SDS011;59030;52.052;8.550;2022-09-03T07:24:03;1.80;;;1.70;;
71265;SDS011;59030;52.052;8.550;2022-09-03T07:26:31;2.97;;;1.90;;
71265;SDS011;59030;52.052;8.550;2022-09-03T07:29:04;2.57;;;1.87;;
71265;SDS011;59030;52.052;8.550;2022-09-03T07:31:33;3.10;;;1.60;;
71265;SDS011;59030;52.052;8.550;2022-09-03T07:34:02;2.63;;;1.63;;
71265;SDS011;59030;52.052;8.550;2022-09-03T07:36:34;1.73;;;1.60;;
71265;SDS011;59030;52.052;8.550;2022-09-03T07:39:00;2.10;;;1.60;;
71265;SDS011;59030;52.052;8.550;2022-09-03T07:41:28;2.20;;;1.50;;
71265;SDS011;59030;52.052;8.550;2022-09-03T07:43:58;1.70;;;1.60;;
71265;SDS011;59030;52.052;8.550;2022-09-03T07:46:28;2.40;;;1.50;;
71265;SDS011;59030;52.052;8.550;2022-09-03T07:48:57;2.40;;;1.60;;
71265;SDS011;59030;52.052;8.550;2022-09-03T07:51:27;2.80;;;1.73;;
71265;SDS011;59030;52.052;8.550;2022-09-03T07:53:56;3.73;;;1.60;;
71265;SDS011;59030;52.052;8.550;2022-09-03T07:56:24;1.53;;;1.40;;
71265;SDS011;59030;52.052;8.550;2022-09-03T07:58:53;2.10;;;1.70;;
71265;SDS011;59030;52.052;8.550;2022-09-03T08:01:22;2.03;;;1.43;;
71265;SDS011;59030;52.052;8.550;2022-09-03T08:03:50;2.40;;;1.60;;
71265;SDS011;59030;52.052;8.550;2022-09-03T08:06:18;2.97;;;1.67;;
71265;SDS011;59030;52.052;8.550;2022-09-03T08:08:47;3.30;;;1.60;;
71265;SDS011;59030;52.052;8.550;2022-09-03T08:11:16;2.50;;;1.67;;
71265;SDS011;59030;52.052;8.550;2022-09-03T08:13:44;4.03;;;1.63;;
71265;SDS011;59030;52.052;8.550;2022-09-03T08:16:14;2.03;;;1.60;;
71265;SDS011;59030;52.052;8.550;2022-09-03T08:18:41;8.13;;;1.63;;
71265;SDS011;59030;52.052;8.550;2022-09-03T08:21:09;1.93;;;1.73;;
71265;SDS011;59030;52.052;8.550;2022-09-03T08:23:38;1.27;;;1.27;;
71265;SDS011;59030;52.052;8.550;2022-09-03T08:26:06;4.50;;;1.70;;
71265;SDS011;59030;52.052;8.550;2022-09-03T08:28:34;1.33;;;1.23;;
71265;SDS011;59030;52.052;8.550;2022-09-03T08:31:05;3.53;;;1.77;;
71265;SDS011;59030;52.052;8.550;2022-09-03T08:33:33;2.60;;;1.40;;
71265;SDS011;59030;52.052;8.550;2022-09-03T08:36:04;2.73;;;1.40;;
71265;SDS011;59030;52.052;8.550;2022-09-03T08:38:31;2.00;;;1.50;;
71265;SDS011;59030;52.052;8.550;2022-09-03T08:41:03;2.30;;;1.50;;
71265;SDS011;59030;52.052;8.550;2022-09-03T08:43:33;1.60;;;1.50;;
71265;SDS011;59030;52.052;8.550;2022-09-03T08:46:02;1.67;;;1.57;;
71265;SDS011;59030;52.052;8.550;2022-09-03T08:48:30;2.77;;;1.40;;
71265;SDS011;59030;52.052;8.550;2022-09-03T08:50:58;3.37;;;1.60;;
71265;SDS011;59030;52.052;8.550;2022-09-03T08:53:27;1.40;;;1.30;;
71265;SDS011;59030;52.052;8.550;2022-09-03T08:55:58;1.60;;;1.50;;
71265;SDS011;59030;52.052;8.550;2022-09-03T08:58:25;1.80;;;1.30;;
71265;SDS011;59030;52.052;8.550;2022-09-03T09:00:54;1.60;;;1.47;;
71265;SDS011;59030;52.052;8.550;2022-09-03T09:03:33;1.30;;;1.20;;
71265;SDS011;59030;52.052;8.550;2022-09-03T09:06:06;1.53;;;1.43;;
71265;SDS011;59030;52.052;8.550;2022-09-03T09:08:37;5.87;;;1.80;;
71265;SDS011;59030;52.052;8.550;2022-09-03T09:11:07;4.30;;;1.97;;
71265;SDS011;59030;52.052;8.550;2022-09-03T09:13:38;2.50;;;1.60;;
71265;SDS011;59030;52.052;8.550;2022-09-03T09:16:07;2.40;;;1.53;;
71265;SDS011;59030;52.052;8.550;2022-09-03T09:18:38;2.30;;;1.60;;
71265;SDS011;59030;52.052;8.550;2022-09-03T09:21:07;1.97;;;1.63;;
71265;SDS011;59030;52.052;8.550;2022-09-03T09:23:38;2.00;;;1.30;;
71265;SDS011;59030;52.052;8.550;2022-09-03T09:26:07;1.80;;;1.60;;
71265;SDS011;59030;52.052;8.550;2022-09-03T09:28:35;2.90;;;1.60;;
71265;SDS011;59030;52.052;8.550;2022-09-03T09:31:04;2.50;;;1.63;;
71265;SDS011;59030;52.052;8.550;2022-09-03T09:33:33;1.83;;;1.57;;
71265;SDS011;59030;52.052;8.550;2022-09-03T09:36:03;1.63;;;1.53;;
71265;SDS011;59030;52.052;8.550;2022-09-03T09:38:34;1.93;;;1.50;;
71265;SDS011;59030;52.052;8.550;2022-09-03T09:41:08;4.87;;;1.43;;
71265;SDS011;59030;52.052;8.550;2022-09-03T09:43:36;2.13;;;1.60;;
71265;SDS011;59030;52.052;8.550;2022-09-03T09:46:10;4.90;;;1.60;;
71265;SDS011;59030;52.052;8.550;2022-09-03T09:48:38;1.97;;;1.40;;
71265;SDS011;59030;52.052;8.550;2022-09-03T09:51:10;2.03;;;1.70;;
71265;SDS011;59030;52.052;8.550;2022-09-03T09:53:37;1.97;;;1.57;;
71265;SDS011;59030;52.052;8.550;2022-09-03T09:56:05;1.90;;;1.70;;
71265;SDS011;59030;52.052;8.550;2022-09-03T09:58:33;5.57;;;1.70;;
71265;SDS011;59030;52.052;8.550;2022-09-03T10:01:02;2.17;;;1.53;;
71265;SDS011;59030;52.052;8.550;2022-09-03T10:03:32;1.53;;;1.43;;
71265;SDS011;59030;52.052;8.550;2022-09-03T10:06:01;1.73;;;1.57;;
71265;SDS011;59030;52.052;8.550;2022-09-03T10:08:33;2.80;;;1.60;;
71265;SDS011;59030;52.052;8.550;2022-09-03T10:11:00;1.80;;;1.70;;
71265;SDS011;59030;52.052;8.550;2022-09-03T10:13:29;1.83;;;1.60;;
71265;SDS011;59030;52.052;8.550;2022-09-03T10:15:59;2.93;;;1.77;;
71265;SDS011;59030;52.052;8.550;2022-09-03T10:18:27;1.60;;;1.50;;
71265;SDS011;59030;52.052;8.550;2022-09-03T10:20:57;2.00;;;1.80;;
71265;SDS011;59030;52.052;8.550;2022-09-03T10:23:25;3.00;;;1.60;;
71265;SDS011;59030;52.052;8.550;2022-09-03T10:25:58;2.13;;;1.80;;
71265;SDS011;59030;52.052;8.550;2022-09-03T10:28:28;2.00;;;1.70;;
71265;SDS011;59030;52.052;8.550;2022-09-03T10:31:02;3.60;;;1.80;;
71265;SDS011;59030;52.052;8.550;2022-09-03T10:33:30;2.07;;;1.70;;
71265;SDS011;59030;52.052;8.550;2022-09-03T10:36:02;1.70;;;1.57;;
71265;SDS011;59030;52.052;8.550;2022-09-03T10:38:30;5.50;;;2.00;;
71265;SDS011;59030;52.052;8.550;2022-09-03T10:41:00;4.23;;;2.20;;
71265;SDS011;59030;52.052;8.550;2022-09-03T10:43:32;2.63;;;2.00;;
71265;SDS011;59030;52.052;8.550;2022-09-03T10:46:01;5.13;;;2.47;;
71265;SDS011;59030;52.052;8.550;2022-09-03T10:48:43;2.67;;;2.10;;
71265;SDS011;59030;52.052;8.550;2022-09-03T10:51:11;3.07;;;2.20;;
71265;SDS011;59030;52.052;8.550;2022-09-03T10:53:43;3.70;;;2.67;;
71265;SDS011;59030;52.052;8.550;2022-09-03T10:56:12;4.20;;;2.33;;
71265;SDS011;59030;52.052;8.550;2022-09-03T10:58:44;5.63;;;2.60;;
71265;SDS011;59030;52.052;8.550;2022-09-03T11:01:15;2.70;;;2.50;;
71265;SDS011;59030;52.052;8.550;2022-09-03T11:03:46;3.73;;;2.30;;
71265;SDS011;59030;52.052;8.550;2022-09-03T11:06:16;2.53;;;2.33;;
71265;SDS011;59030;52.052;8.550;2022-09-03T11:08:45;2.40;;;2.30;;
71265;SDS011;59030;52.052;8.550;2022-09-03T11:11:14;2.00;;;1.80;;
71265;SDS011;59030;52.052;8.550;2022-09-03T11:13:45;1.97;;;1.60;;
71265;SDS011;59030;52.052;8.550;2022-09-03T11:16:14;2.47;;;1.93;;
71265;SDS011;59030;52.052;8.550;2022-09-03T11:18:43;2.80;;;2.00;;
71265;SDS011;59030;52.052;8.550;2022-09-03T11:21:12;3.10;;;2.33;;
71265;SDS011;59030;52.052;8.550;2022-09-03T11:23:41;2.27;;;2.07;;
71265;SDS011;59030;52.052;8.550;2022-09-03T11:26:10;2.33;;;2.13;;
71265;SDS011;59030;52.052;8.550;2022-09-03T11:28:40;4.90;;;2.27;;
71265;SDS011;59030;52.052;8.550;2022-09-03T11:31:13;3.40;;;1.70;;
71265;SDS011;59030;52.052;8.550;2022-09-03T11:33:42;2.00;;;1.80;;
71265;SDS011;59030;52.052;8.550;2022-09-03T11:36:10;3.00;;;1.93;;
71265;SDS011;59030;52.052;8.550;2022-09-03T11:38:37;2.63;;;2.23;;
71265;SDS011;59030;52.052;8.550;2022-09-03T11:41:11;3.37;;;1.70;;
71265;SDS011;59030;52.052;8.550;2022-09-03T11:43:39;2.17;;;1.80;;
71265;SDS011;59030;52.052;8.550;2022-09-03T11:46:09;2.77;;;1.90;;
71265;SDS011;59030;52.052;8.550;2022-09-03T11:48:39;2.20;;;1.73;;
71265;SDS011;59030;52.052;8.550;2022-09-03T11:51:20;1.90;;;1.80;;
71265;SDS011;59030;52.052;8.550;2022-09-03T11:53:55;3.37;;;1.80;;
71265;SDS011;59030;52.052;8.550;2022-09-03T11:56:22;1.70;;;1.60;;
71265;SDS011;59030;52.052;8.550;2022-09-03T11:59:00;1.70;;;1.60;;
71265;SDS011;59030;52.052;8.550;2022-09-03T12:01:28;3.80;;;1.60;;
71265;SDS011;59030;52.052;8.550;2022-09-03T12:03:58;2.10;;;1.90;;
71265;SDS011;59030;52.052;8.550;2022-09-03T12:06:30;2.20;;;1.90;;
71265;SDS011;59030;52.052;8.550;2022-09-03T12:09:07;3.53;;;1.80;;
71265;SDS011;59030;52.052;8.550;2022-09-03T12:11:38;1.70;;;1.60;;
71265;SDS011;59030;52.052;8.550;2022-09-03T12:14:08;2.97;;;1.80;;
71265;SDS011;59030;52.052;8.550;2022-09-03T12:16:40;1.70;;;1.60;;
71265;SDS011;59030;52.052;8.550;2022-09-03T12:19:09;2.10;;;1.80;;
71265;SDS011;59030;52.052;8.550;2022-09-03T12:21:38;2.40;;;1.80;;
71265;SDS011;59030;52.052;8.550;2022-09-03T12:24:07;2.00;;;1.80;;
71265;SDS011;59030;52.052;8.550;2022-09-03T12:26:38;1.70;;;1.60;;
71265;SDS011;59030;52.052;8.550;2022-09-03T12:29:16;3.40;;;2.00;;
71265;SDS011;59030;52.052;8.550;2022-09-03T12:31:42;2.00;;;1.60;;
71265;SDS011;59030;52.052;8.550;2022-09-03T12:34:11;3.37;;;1.90;;
71265;SDS011;59030;52.052;8.550;2022-09-03T12:36:40;2.80;;;1.90;;
71265;SDS011;59030;52.052;8.550;2022-09-03T12:39:08;26.03;;;3.57;;
71265;SDS011;59030;52.052;8.550;2022-09-03T12:41:37;11.60;;;2.80;;
71265;SDS011;59030;52.052;8.550;2022-09-03T12:44:04;7.10;;;1.93;;
71265;SDS011;59030;52.052;8.550;2022-09-03T12:46:32;6.97;;;2.17;;
71265;SDS011;59030;52.052;8.550;2022-09-03T12:49:00;3.50;;;1.90;;
71265;SDS011;59030;52.052;8.550;2022-09-03T12:51:31;3.47;;;1.77;;
71265;SDS011;59030;52.052;8.550;2022-09-03T12:53:58;4.47;;;2.17;;
71265;SDS011;59030;52.052;8.550;2022-09-03T12:56:27;2.10;;;1.90;;
71265;SDS011;59030;52.052;8.550;2022-09-03T12:58:57;3.73;;;1.90;;
71265;SDS011;59030;52.052;8.550;2022-09-03T13:01:26;2.57;;;1.83;;
71265;SDS011;59030;52.052;8.550;2022-09-03T13:03:58;2.57;;;1.80;;
71265;SDS011;59030;52.052;8.550;2022-09-03T13:06:27;2.10;;;1.90;;
71265;SDS011;59030;52.052;8.550;2022-09-03T13:08:55;2.93;;;1.97;;
71265;SDS011;59030;52.052;8.550;2022-09-03T13:11:23;2.37;;;1.97;;
71265;SDS011;59030;52.052;8.550;2022-09-03T13:13:52;1.70;;;1.60;;
71265;SDS011;59030;52.052;8.550;2022-09-03T13:19:07;2.70;;;1.87;;
71265;SDS011;59030;52.052;8.550;2022-09-03T13:21:38;1.93;;;1.80;;
71265;SDS011;59030;52.052;8.550;2022-09-03T13:24:08;2.57;;;1.77;;
71265;SDS011;59030;52.052;8.550;2022-09-03T13:26:40;2.40;;;2.23;;
71265;SDS011;59030;52.052;8.550;2022-09-03T13:29:19;2.10;;;1.77;;
71265;SDS011;59030;52.052;8.550;2022-09-03T13:31:48;4.23;;;1.80;;
71265;SDS011;59030;52.052;8.550;2022-09-03T13:34:17;2.40;;;2.10;;
71265;SDS011;59030;52.052;8.550;2022-09-03T13:36:45;1.90;;;1.80;;
71265;SDS011;59030;52.052;8.550;2022-09-03T13:39:17;3.63;;;1.70;;
71265;SDS011;59030;52.052;8.550;2022-09-03T13:41:45;2.00;;;1.80;;
71265;SDS011;59030;52.052;8.550;2022-09-03T13:44:15;2.37;;;2.00;;
71265;SDS011;59030;52.052;8.550;2022-09-03T13:46:45;1.87;;;1.77;;
71265;SDS011;59030;52.052;8.550;2022-09-03T13:49:18;3.37;;;1.90;;
71265;SDS011;59030;52.052;8.550;2022-09-03T13:52:03;2.40;;;1.90;;
71265;SDS011;59030;52.052;8.550;2022-09-03T13:54:34;1.97;;;1.67;;
71265;SDS011;59030;52.052;8.550;2022-09-03T13:57:03;3.63;;;1.90;;
71265;SDS011;59030;52.052;8.550;2022-09-03T13:59:33;3.37;;;1.90;;
71265;SDS011;59030;52.052;8.550;2022-09-03T14:02:09;1.87;;;1.77;;
71265;SDS011;59030;52.052;8.550;2022-09-03T14:04:42;2.83;;;1.90;;
71265;SDS011;59030;52.052;8.550;2022-09-03T14:07:10;3.30;;;1.80;;
71265;SDS011;59030;52.052;8.550;2022-09-03T14:09:40;1.73;;;1.63;;
71265;SDS011;59030;52.052;8.550;2022-09-03T14:12:12;3.13;;;1.90;;
71265;SDS011;59030;52.052;8.550;2022-09-03T14:14:40;1.90;;;1.70;;
71265;SDS011;59030;52.052;8.550;2022-09-03T14:17:09;2.80;;;1.90;;
71265;SDS011;59030;52.052;8.550;2022-09-03T14:19:40;3.03;;;1.90;;
71265;SDS011;59030;52.052;8.550;2022-09-03T14:22:08;4.80;;;1.90;;
71265;SDS011;59030;52.052;8.550;2022-09-03T14:24:39;3.00;;;1.80;;
71265;SDS011;59030;52.052;8.550;2022-09-03T14:27:08;2.93;;;1.80;;
71265;SDS011;59030;52.052;8.550;2022-09-03T14:29:35;1.90;;;1.70;;
71265;SDS011;59030;52.052;8.550;2022-09-03T14:32:07;2.00;;;1.90;;
71265;SDS011;59030;52.052;8.550;2022-09-03T14:34:36;5.43;;;2.20;;
71265;SDS011;59030;52.052;8.550;2022-09-03T14:37:04;4.47;;;1.97;;
71265;SDS011;59030;52.052;8.550;2022-09-03T14:39:33;5.30;;;2.10;;
71265;SDS011;59030;52.052;8.550;2022-09-03T14:44:52;2.60;;;2.00;;
71265;SDS011;59030;52.052;8.550;2022-09-03T14:47:27;3.00;;;1.67;;
71265;SDS011;59030;52.052;8.550;2022-09-03T14:50:18;1.80;;;1.70;;
71265;SDS011;59030;52.052;8.550;2022-09-03T14:55:43;1.97;;;1.60;;
71265;SDS011;59030;52.052;8.550;2022-09-03T14:58:17;1.90;;;1.80;;
71265;SDS011;59030;52.052;8.550;2022-09-03T15:00:48;1.70;;;1.60;;
71265;SDS011;59030;52.052;8.550;2022-09-03T15:03:23;2.60;;;1.97;;
71265;SDS011;59030;52.052;8.550;2022-09-03T15:08:54;2.43;;;1.63;;
71265;SDS011;59030;52.052;8.550;2022-09-03T15:11:23;5.07;;;1.70;;
71265;SDS011;59030;52.052;8.550;2022-09-03T15:13:52;4.43;;;1.80;;
71265;SDS011;59030;52.052;8.550;2022-09-03T15:16:24;2.63;;;1.83;;
71265;SDS011;59030;52.052;8.550;2022-09-03T15:18:57;2.10;;;1.40;;